createdAt,value
2022-08-01T00:00:14.403Z,2.28
2022-08-01T00:02:41.704Z,2.35
2022-08-01T00:05:09.925Z,2.55
2022-08-01T00:07:37.110Z,2.70
2022-08-01T00:10:05.695Z,2.85
2022-08-01T00:12:32.647Z,2.35
2022-08-01T00:14:59.644Z,2.67
2022-08-01T00:17:26.576Z,2.58
2022-08-01T00:19:53.319Z,2.88
2022-08-01T00:22:20.161Z,2.88
2022-08-01T00:24:46.941Z,2.60
2022-08-01T00:27:13.751Z,2.15
2022-08-01T00:30:10.063Z,2.05
2022-08-01T00:32:27.298Z,2.60
2022-08-01T00:34:54.137Z,2.42
2022-08-01T00:37:20.911Z,2.35
2022-08-01T00:39:47.703Z,2.75
2022-08-01T00:42:14.693Z,2.70
2022-08-01T00:44:42.093Z,2.58
2022-08-01T00:47:10.283Z,2.55
2022-08-01T00:49:37.255Z,2.33
2022-08-01T00:52:06.525Z,2.60
2022-08-01T00:54:33.802Z,2.60
2022-08-01T00:57:00.887Z,2.70
2022-08-01T00:59:28.328Z,2.45
2022-08-01T01:01:55.464Z,2.88
2022-08-01T01:04:23.291Z,3.00
2022-08-01T01:07:16.193Z,2.70
2022-08-01T01:10:01.585Z,2.58
2022-08-01T01:12:38.708Z,3.08
2022-08-01T01:15:11.046Z,3.38
2022-08-01T01:17:49.857Z,3.05
2022-08-01T01:20:19.532Z,3.40
2022-08-01T01:22:55.148Z,2.90
2022-08-01T01:28:06.610Z,2.80
2022-08-01T01:30:34.655Z,3.20
2022-08-01T01:33:06.751Z,3.30
2022-08-01T01:35:37.265Z,3.13
2022-08-01T01:38:14.907Z,2.95
2022-08-01T01:40:43.338Z,3.05
2022-08-01T01:43:12.460Z,4.03
2022-08-01T01:45:41.183Z,3.13
2022-08-01T01:48:10.934Z,2.97
2022-08-01T01:50:38.956Z,3.47
2022-08-01T01:53:06.841Z,3.25
2022-08-01T01:55:49.529Z,2.95
2022-08-01T01:58:18.484Z,2.93
2022-08-01T02:00:47.660Z,3.17
2022-08-01T02:03:15.774Z,3.63
2022-08-01T02:05:43.423Z,3.10
2022-08-01T02:08:12.650Z,2.70
2022-08-01T02:10:41.379Z,3.15
2022-08-01T02:13:08.967Z,2.92
2022-08-01T02:15:58.986Z,3.33
2022-08-01T02:18:27.209Z,2.92
2022-08-01T02:20:56.991Z,3.35
2022-08-01T02:23:29.240Z,3.17
2022-08-01T02:26:08.493Z,3.28
2022-08-01T02:28:46.659Z,2.95
2022-08-01T02:31:17.241Z,3.20
2022-08-01T02:33:49.340Z,3.05
2022-08-01T02:36:31.299Z,3.00
2022-08-01T02:39:04.281Z,3.13
2022-08-01T02:41:33.829Z,3.67
2022-08-01T02:44:04.548Z,3.03
2022-08-01T02:46:47.283Z,2.92
2022-08-01T02:49:15.850Z,3.50
2022-08-01T02:51:44.455Z,3.67
2022-08-01T02:54:12.522Z,2.78
2022-08-01T02:56:41.772Z,3.55
2022-08-01T02:59:25.739Z,3.10
2022-08-01T03:01:56.436Z,3.28
2022-08-01T03:04:25.348Z,3.05
2022-08-01T03:06:55.169Z,2.80
2022-08-01T03:09:23.237Z,3.47
2022-08-01T03:11:51.569Z,3.13
2022-08-01T03:14:19.841Z,3.70
2022-08-01T03:16:48.106Z,2.92
2022-08-01T03:19:16.809Z,3.45
2022-08-01T03:21:45.397Z,2.80
2022-08-01T03:24:14.037Z,3.25
2022-08-01T03:26:42.670Z,3.13
2022-08-01T03:29:16.793Z,2.90
2022-08-01T03:31:45.977Z,2.80
2022-08-01T03:34:13.497Z,2.92
2022-08-01T03:36:50.631Z,2.92
2022-08-01T03:39:20.227Z,2.75
2022-08-01T03:42:04.885Z,2.65
2022-08-01T03:44:34.274Z,2.83
2022-08-01T03:47:05.214Z,2.78
2022-08-01T03:49:34.222Z,2.83
2022-08-01T03:52:05.603Z,2.50
2022-08-01T03:54:36.995Z,2.78
2022-08-01T03:57:05.309Z,3.05
2022-08-01T03:59:32.956Z,3.00
2022-08-01T04:02:00.498Z,2.30
2022-08-01T04:04:27.545Z,2.88
2022-08-01T04:06:54.993Z,3.03
2022-08-01T04:09:22.857Z,2.58
2022-08-01T04:11:50.023Z,2.63
2022-08-01T04:14:16.959Z,2.75
2022-08-01T04:16:43.910Z,2.97
2022-08-01T04:19:10.810Z,2.40
2022-08-01T04:21:38.626Z,2.65
2022-08-01T04:24:13.123Z,2.20
2022-08-01T04:26:42.248Z,2.45
2022-08-01T04:29:10.499Z,2.67
2022-08-01T04:31:40.577Z,2.83
2022-08-01T04:34:08.263Z,2.15
2022-08-01T04:36:37.933Z,2.28
2022-08-01T04:39:07.166Z,2.50
2022-08-01T04:41:34.908Z,2.10
2022-08-01T04:44:03.643Z,2.63
2022-08-01T04:46:31.763Z,2.00
2022-08-01T04:48:59.593Z,2.15
2022-08-01T04:51:26.507Z,1.98
2022-08-01T04:53:53.513Z,2.00
2022-08-01T04:56:21.755Z,2.10
2022-08-01T04:58:49.041Z,2.30
2022-08-01T05:01:16.653Z,2.05
2022-08-01T05:03:43.550Z,2.17
2022-08-01T05:06:10.312Z,2.13
2022-08-01T05:08:37.307Z,2.42
2022-08-01T05:11:04.778Z,2.10
2022-08-01T05:13:31.666Z,1.50
2022-08-01T05:15:58.518Z,1.85
2022-08-01T05:18:28.564Z,1.70
2022-08-01T05:20:56.843Z,1.95
2022-08-01T05:23:41.859Z,1.70
2022-08-01T05:28:37.086Z,1.83
2022-08-01T05:31:04.896Z,2.20
2022-08-01T05:33:31.657Z,1.52
2022-08-01T05:35:58.521Z,1.83
2022-08-01T05:38:25.477Z,1.90
2022-08-01T05:40:52.315Z,2.30
2022-08-01T05:43:19.121Z,1.85
2022-08-01T05:45:47.011Z,1.80
2022-08-01T05:48:14.020Z,1.90
2022-08-01T05:50:40.944Z,1.60
2022-08-01T05:53:07.715Z,2.05
2022-08-01T05:55:35.472Z,1.73
2022-08-01T05:58:02.596Z,1.60
2022-08-01T06:00:29.446Z,1.70
2022-08-01T06:02:56.215Z,2.00
2022-08-01T06:05:23.129Z,1.77
2022-08-01T06:07:49.949Z,1.88
2022-08-01T06:10:16.736Z,1.85
2022-08-01T06:12:43.820Z,2.13
2022-08-01T06:15:11.018Z,2.05
2022-08-01T06:17:37.934Z,1.90
2022-08-01T06:20:05.872Z,1.90
2022-08-01T06:22:33.906Z,1.85
2022-08-01T06:25:00.762Z,1.83
2022-08-01T06:27:27.598Z,2.10
2022-08-01T06:29:54.594Z,2.33
2022-08-01T06:32:26.334Z,2.00
2022-08-01T06:34:55.668Z,2.13
2022-08-01T06:37:22.837Z,2.30
2022-08-01T06:39:50.557Z,1.77
2022-08-01T06:42:18.382Z,2.05
2022-08-01T06:44:45.612Z,1.98
2022-08-01T06:47:12.583Z,2.22
2022-08-01T06:49:39.437Z,1.88
2022-08-01T06:52:06.451Z,2.00
2022-08-01T06:54:33.351Z,2.53
2022-08-01T06:57:00.199Z,2.13
2022-08-01T06:59:27.011Z,2.53
2022-08-01T07:01:53.786Z,1.98
2022-08-01T07:04:20.605Z,2.10
2022-08-01T07:06:47.418Z,1.85
2022-08-01T07:09:14.878Z,2.42
2022-08-01T07:11:42.283Z,2.15
2022-08-01T07:14:09.269Z,2.60
2022-08-01T07:16:36.180Z,2.15
2022-08-01T07:19:03.125Z,2.17
2022-08-01T07:21:40.650Z,2.08
2022-08-01T07:24:14.567Z,2.08
2022-08-01T07:26:52.354Z,2.42
2022-08-01T07:29:23.466Z,1.58
2022-08-01T07:31:50.282Z,3.05
2022-08-01T07:34:17.054Z,1.80
2022-08-01T07:36:43.904Z,1.92
2022-08-01T07:39:10.808Z,2.17
2022-08-01T07:42:02.457Z,1.88
2022-08-01T07:44:24.578Z,2.10
2022-08-01T07:46:55.121Z,1.90
2022-08-01T07:49:22.864Z,2.25
2022-08-01T07:52:13.447Z,1.65
2022-08-01T07:54:36.976Z,1.95
2022-08-01T07:57:04.514Z,1.40
2022-08-01T07:59:31.863Z,1.70
2022-08-01T08:01:59.210Z,2.20
2022-08-01T08:04:27.046Z,2.08
2022-08-01T08:06:54.630Z,1.70
2022-08-01T08:09:21.661Z,1.70
2022-08-01T08:11:48.661Z,2.05
2022-08-01T08:14:17.018Z,1.95
2022-08-01T08:16:44.193Z,1.33
2022-08-01T08:19:11.770Z,1.80
2022-08-01T08:21:39.177Z,1.80
2022-08-01T08:24:26.881Z,1.73
2022-08-01T08:26:59.449Z,1.73
2022-08-01T08:29:27.557Z,1.70
2022-08-01T08:31:56.922Z,2.20
2022-08-01T08:34:24.975Z,2.25
2022-08-01T08:36:52.735Z,2.20
2022-08-01T08:39:20.709Z,1.55
2022-08-01T08:41:49.395Z,2.20
2022-08-01T08:44:17.897Z,2.25
2022-08-01T08:46:48.127Z,2.20
2022-08-01T08:49:22.159Z,2.30
2022-08-01T08:51:51.319Z,2.60
2022-08-01T08:54:31.128Z,2.15
2022-08-01T08:57:00.039Z,2.47
2022-08-01T08:59:27.443Z,2.25
2022-08-01T09:01:54.548Z,2.20
2022-08-01T09:04:26.310Z,2.08
2022-08-01T09:06:54.205Z,2.65
2022-08-01T09:09:21.288Z,2.33
2022-08-01T09:11:56.979Z,2.60
2022-08-01T09:14:26.709Z,2.35
2022-08-01T09:17:23.460Z,2.25
2022-08-01T09:19:54.416Z,2.00
2022-08-01T09:22:24.438Z,2.08
2022-08-01T09:25:07.900Z,2.20
2022-08-01T09:27:36.258Z,2.20
2022-08-01T09:30:10.375Z,2.33
2022-08-01T09:35:36.479Z,2.47
2022-08-01T09:38:20.849Z,2.70
2022-08-01T09:40:53.894Z,3.63
2022-08-01T09:43:22.178Z,3.75
2022-08-01T09:45:50.736Z,3.33
2022-08-01T09:48:22.504Z,2.60
2022-08-01T09:50:54.594Z,2.92
2022-08-01T09:53:24.539Z,2.63
2022-08-01T09:56:13.021Z,2.78
2022-08-01T09:58:58.359Z,2.85
2022-08-01T10:01:26.578Z,2.65
2022-08-01T10:04:09.894Z,3.22
2022-08-01T10:06:38.430Z,2.92
2022-08-01T10:09:05.400Z,3.20
2022-08-01T10:11:36.197Z,3.40
2022-08-01T10:14:03.988Z,3.15
2022-08-01T10:16:33.025Z,3.17
2022-08-01T10:19:00.433Z,3.17
2022-08-01T10:21:53.236Z,3.13
2022-08-01T10:24:19.023Z,3.10
2022-08-01T10:26:49.692Z,3.05
2022-08-01T10:29:45.091Z,3.08
2022-08-01T10:32:07.806Z,3.03
2022-08-01T10:34:35.640Z,3.00
2022-08-01T10:37:03.963Z,3.10
2022-08-01T10:39:34.400Z,3.05
2022-08-01T10:42:06.830Z,3.30
2022-08-01T10:44:38.273Z,3.35
2022-08-01T10:47:18.156Z,3.00
2022-08-01T10:49:59.738Z,3.53
2022-08-01T10:52:27.230Z,3.17
2022-08-01T10:55:05.716Z,3.10
2022-08-01T10:57:52.904Z,2.92
2022-08-01T11:00:22.008Z,3.20
2022-08-01T11:03:04.521Z,3.70
2022-08-01T11:05:36.104Z,2.72
2022-08-01T11:08:09.083Z,3.40
2022-08-01T11:10:41.598Z,3.58
2022-08-01T11:13:12.322Z,2.92
2022-08-01T11:15:50.535Z,3.40
2022-08-01T11:18:32.513Z,3.17
2022-08-01T11:21:59.109Z,3.70
2022-08-01T11:23:54.434Z,3.78
2022-08-01T11:26:28.755Z,3.67
2022-08-01T11:29:21.015Z,3.00
2022-08-01T11:31:49.397Z,3.28
2022-08-01T11:34:16.672Z,2.90
2022-08-01T11:36:59.875Z,3.13
2022-08-01T11:39:27.355Z,3.35
2022-08-01T11:41:55.541Z,3.67
2022-08-01T11:44:26.814Z,3.33
2022-08-01T11:46:56.872Z,3.30
2022-08-01T11:49:39.417Z,3.50
2022-08-01T11:52:18.268Z,3.40
2022-08-01T11:54:52.041Z,3.17
2022-08-01T11:57:22.961Z,3.67
2022-08-01T12:00:03.607Z,3.25
2022-08-01T12:02:35.327Z,3.38
2022-08-01T12:05:05.092Z,3.85
2022-08-01T12:07:34.164Z,3.88
2022-08-01T12:10:10.954Z,4.00
2022-08-01T12:12:49.621Z,3.63
2022-08-01T12:15:18.048Z,3.90
2022-08-01T12:17:58.154Z,3.70
2022-08-01T12:20:32.025Z,4.00
2022-08-01T12:23:06.737Z,4.00
2022-08-01T12:25:34.637Z,3.58
2022-08-01T12:28:06.740Z,3.90
2022-08-01T12:30:38.269Z,3.63
2022-08-01T12:33:06.778Z,3.90
2022-08-01T12:35:34.251Z,3.83
2022-08-01T12:38:14.365Z,3.75
2022-08-01T12:40:46.133Z,3.53
2022-08-01T12:43:28.556Z,4.35
2022-08-01T12:45:58.117Z,4.18
2022-08-01T12:48:26.634Z,3.90
2022-08-01T12:50:55.017Z,3.70
2022-08-01T12:53:22.744Z,3.45
2022-08-01T12:55:59.283Z,3.85
2022-08-01T12:58:34.698Z,4.15
2022-08-01T13:01:10.149Z,3.28
2022-08-01T13:03:37.440Z,4.40
2022-08-01T13:06:16.479Z,3.22
2022-08-01T13:08:43.886Z,3.03
2022-08-01T13:11:16.619Z,3.55
2022-08-01T13:13:49.142Z,3.58
2022-08-01T13:16:30.263Z,3.67
2022-08-01T13:19:05.775Z,3.45
2022-08-01T13:21:34.621Z,4.28
2022-08-01T13:24:24.466Z,3.40
2022-08-01T13:26:56.888Z,3.40
2022-08-01T13:29:42.114Z,3.80
2022-08-01T13:32:27.888Z,3.55
2022-08-01T13:35:05.701Z,3.60
2022-08-01T13:37:32.886Z,3.70
2022-08-01T13:39:59.899Z,3.10
2022-08-01T13:42:26.749Z,3.10
2022-08-01T13:44:53.791Z,3.30
2022-08-01T13:47:31.495Z,3.20
2022-08-01T13:50:02.780Z,3.35
2022-08-01T13:52:30.432Z,3.20
2022-08-01T13:54:57.427Z,3.45
2022-08-01T13:57:24.361Z,3.20
2022-08-01T13:59:52.344Z,2.83
2022-08-01T14:02:20.442Z,3.05
2022-08-01T14:04:47.610Z,3.03
2022-08-01T14:07:15.216Z,3.58
2022-08-01T14:09:57.860Z,2.80
2022-08-01T14:12:29.922Z,3.50
2022-08-01T14:14:57.314Z,2.67
2022-08-01T14:17:24.365Z,3.00
2022-08-01T14:19:51.583Z,2.85
2022-08-01T14:22:18.419Z,3.03
2022-08-01T14:24:45.227Z,2.97
2022-08-01T14:27:12.516Z,3.08
2022-08-01T14:30:02.493Z,2.63
2022-08-01T14:32:28.498Z,3.35
2022-08-01T14:34:55.752Z,3.25
2022-08-01T14:37:22.592Z,3.63
2022-08-01T14:39:56.245Z,2.97
2022-08-01T14:42:23.060Z,3.45
2022-08-01T14:44:50.234Z,2.85
2022-08-01T14:47:21.822Z,4.10
2022-08-01T14:49:49.963Z,3.20
2022-08-01T14:52:17.029Z,3.03
2022-08-01T14:54:43.879Z,3.13
2022-08-01T14:57:10.840Z,3.25
2022-08-01T14:59:37.682Z,4.40
2022-08-01T15:02:05.142Z,3.20
2022-08-01T15:04:32.271Z,3.42
2022-08-01T15:06:59.148Z,3.47
2022-08-01T15:09:25.953Z,3.33
2022-08-01T15:11:52.784Z,3.92
2022-08-01T15:14:38.191Z,3.30
2022-08-01T15:17:05.115Z,3.50
2022-08-01T15:19:31.936Z,3.60
2022-08-01T15:22:02.857Z,3.72
2022-08-01T15:24:29.669Z,3.50
2022-08-01T15:26:56.457Z,3.80
2022-08-01T15:29:23.316Z,4.00
2022-08-01T15:31:50.499Z,4.22
2022-08-01T15:34:17.482Z,4.03
2022-08-01T15:36:44.325Z,3.80
2022-08-01T15:39:11.894Z,3.75
2022-08-01T15:41:38.767Z,3.75
2022-08-01T15:44:05.586Z,4.00
2022-08-01T15:46:32.435Z,4.05
2022-08-01T15:49:05.231Z,4.03
2022-08-01T15:51:32.964Z,4.13
2022-08-01T15:54:03.548Z,4.45
2022-08-01T15:56:31.035Z,4.35
2022-08-01T15:58:58.243Z,4.28
2022-08-01T16:01:27.005Z,3.67
2022-08-01T16:03:55.606Z,3.80
2022-08-01T16:06:22.772Z,4.38
2022-08-01T16:08:49.648Z,4.70
2022-08-01T16:11:16.759Z,4.25
2022-08-01T16:13:43.945Z,4.88
2022-08-01T16:16:12.258Z,4.07
2022-08-01T16:18:39.254Z,3.92
2022-08-01T16:21:06.135Z,3.90
2022-08-01T16:23:33.036Z,4.25
2022-08-01T16:25:59.944Z,4.40
2022-08-01T16:28:26.948Z,4.60
2022-08-01T16:31:12.666Z,4.40
2022-08-01T16:33:52.142Z,4.10
2022-08-01T16:36:21.634Z,4.63
2022-08-01T16:38:50.198Z,3.92
2022-08-01T16:41:19.227Z,4.30
2022-08-01T16:43:53.984Z,4.18
2022-08-01T16:46:25.535Z,4.25
2022-08-01T16:48:53.253Z,3.78
2022-08-01T16:51:20.251Z,4.47
2022-08-01T16:53:47.159Z,4.10
2022-08-01T16:56:13.967Z,4.03
2022-08-01T16:58:40.847Z,4.78
2022-08-01T17:01:56.935Z,4.35
2022-08-01T17:03:58.163Z,4.15
2022-08-01T17:06:28.524Z,4.32
2022-08-01T17:08:55.354Z,4.43
2022-08-01T17:11:22.191Z,4.72
2022-08-01T17:13:49.075Z,5.03
2022-08-01T17:16:15.835Z,4.47
2022-08-01T17:18:42.677Z,4.35
2022-08-01T17:21:09.743Z,4.25
2022-08-01T17:23:37.476Z,4.28
2022-08-01T17:26:04.567Z,5.10
2022-08-01T17:28:31.422Z,4.53
2022-08-01T17:30:59.257Z,4.15
2022-08-01T17:33:45.583Z,4.47
2022-08-01T17:36:13.265Z,4.25
2022-08-01T17:38:40.141Z,4.88
2022-08-01T17:41:07.110Z,5.20
2022-08-01T17:43:33.956Z,4.30
2022-08-01T17:46:00.949Z,4.55
2022-08-01T17:48:28.324Z,4.40
2022-08-01T17:50:55.526Z,5.13
2022-08-01T17:53:23.988Z,4.68
2022-08-01T17:55:55.516Z,4.60
2022-08-01T17:58:36.811Z,4.47
2022-08-01T18:01:12.982Z,5.00
2022-08-01T18:03:41.193Z,4.32
2022-08-01T18:06:17.416Z,4.68
2022-08-01T18:08:47.063Z,5.05
2022-08-01T18:11:15.844Z,5.00
2022-08-01T18:13:42.797Z,5.45
2022-08-01T18:16:12.869Z,5.28
2022-08-01T18:18:41.196Z,5.13
2022-08-01T18:21:08.312Z,4.57
2022-08-01T18:23:35.693Z,5.05
2022-08-01T18:26:03.298Z,4.55
2022-08-01T18:28:36.643Z,4.97
2022-08-01T18:31:06.685Z,5.07
2022-08-01T18:33:34.435Z,5.43
2022-08-01T18:36:04.049Z,4.70
2022-08-01T18:38:32.509Z,4.65
2022-08-01T18:41:01.321Z,4.72
2022-08-01T18:43:28.592Z,5.38
2022-08-01T18:45:58.570Z,4.68
2022-08-01T18:48:25.339Z,4.85
2022-08-01T18:50:53.947Z,4.88
2022-08-01T18:53:22.518Z,5.25
2022-08-01T18:55:49.801Z,5.20
2022-08-01T18:58:16.975Z,5.47
2022-08-01T19:03:26.309Z,6.00
2022-08-01T19:05:53.542Z,5.75
2022-08-01T19:08:20.357Z,5.55
2022-08-01T19:10:47.304Z,5.63
2022-08-01T19:13:14.679Z,5.38
2022-08-01T19:15:41.535Z,6.18
2022-08-01T19:18:09.964Z,5.75
2022-08-01T19:20:42.595Z,5.50
2022-08-01T19:23:28.604Z,5.72
2022-08-01T19:25:57.521Z,5.45
2022-08-01T19:28:26.013Z,6.95
2022-08-01T19:30:54.471Z,5.80
2022-08-01T19:33:21.993Z,5.70
2022-08-01T19:35:52.720Z,5.60
2022-08-01T19:38:19.820Z,6.20
2022-08-01T19:40:46.754Z,6.22
2022-08-01T19:43:14.619Z,5.55
2022-08-01T19:45:41.748Z,6.07
2022-08-01T19:48:08.745Z,6.00
2022-08-01T19:50:40.111Z,5.40
2022-08-01T19:53:07.851Z,6.10
2022-08-01T19:55:39.862Z,6.00
2022-08-01T19:58:28.677Z,5.43
2022-08-01T20:00:55.963Z,5.60
2022-08-01T20:03:23.306Z,5.13
2022-08-01T20:05:51.536Z,5.25
2022-08-01T20:08:20.617Z,5.30
2022-08-01T20:10:48.468Z,5.15
2022-08-01T20:13:16.529Z,5.20
2022-08-01T20:15:44.883Z,4.93
2022-08-01T20:18:11.779Z,5.00
2022-08-01T20:20:38.796Z,4.82
2022-08-01T20:23:10.429Z,4.70
2022-08-01T20:25:39.822Z,4.38
2022-08-01T20:28:10.318Z,4.80
2022-08-01T20:30:41.724Z,4.50
2022-08-01T20:33:11.210Z,5.25
2022-08-01T20:35:52.382Z,4.82
2022-08-01T20:38:27.678Z,4.82
2022-08-01T20:40:58.810Z,5.45
2022-08-01T20:43:28.770Z,4.93
2022-08-01T20:45:56.638Z,5.07
2022-08-01T20:48:26.558Z,4.60
2022-08-01T20:51:12.713Z,4.80
2022-08-01T20:53:41.136Z,4.30
2022-08-01T20:56:21.535Z,4.40
2022-08-01T20:59:39.929Z,4.07
2022-08-01T21:02:35.016Z,3.70
2022-08-01T21:05:12.961Z,4.32
2022-08-01T21:07:47.096Z,5.13
2022-08-01T21:10:16.011Z,4.22
2022-08-01T21:13:00.352Z,3.83
2022-08-01T21:16:22.671Z,4.00
2022-08-01T21:19:17.187Z,4.43
2022-08-01T21:21:48.246Z,4.40
2022-08-01T21:24:19.417Z,5.03
2022-08-01T21:26:46.892Z,5.18
2022-08-01T21:29:15.245Z,4.70
2022-08-01T21:31:42.447Z,4.97
2022-08-01T21:34:12.132Z,4.25
2022-08-01T21:36:39.989Z,4.15
2022-08-01T21:39:07.689Z,3.97
2022-08-01T21:42:00.926Z,5.18
2022-08-01T21:44:28.652Z,4.68
2022-08-01T21:46:59.242Z,4.72
2022-08-01T21:49:26.673Z,4.50
2022-08-01T21:52:11.378Z,4.07
2022-08-01T21:54:50.238Z,3.67
2022-08-01T21:57:23.697Z,3.60
2022-08-01T22:00:02.168Z,4.60
2022-08-01T22:02:36.478Z,3.92
2022-08-01T22:05:12.523Z,3.85
2022-08-01T22:07:47.017Z,4.25
2022-08-01T22:10:16.635Z,4.10
2022-08-01T22:12:44.241Z,4.38
2022-08-01T22:15:12.681Z,3.65
2022-08-01T22:17:40.848Z,4.22
2022-08-01T22:20:09.262Z,4.30
2022-08-01T22:22:51.019Z,4.30
2022-08-01T22:25:21.108Z,4.63
2022-08-01T22:28:08.912Z,3.78
2022-08-01T22:30:39.893Z,5.03
2022-08-01T22:33:16.603Z,4.18
2022-08-01T22:35:49.845Z,4.97
2022-08-01T22:38:22.716Z,4.10
2022-08-01T22:40:54.454Z,4.10
2022-08-01T22:43:46.370Z,4.18
2022-08-01T22:46:19.299Z,4.07
2022-08-01T22:48:56.659Z,3.75
2022-08-01T22:51:31.726Z,4.35
2022-08-01T22:54:11.512Z,3.92
2022-08-01T22:56:44.231Z,4.30
2022-08-01T22:59:16.792Z,4.32
2022-08-01T23:01:48.353Z,4.03
2022-08-01T23:04:33.108Z,4.40
2022-08-01T23:07:05.652Z,4.43
2022-08-01T23:09:39.324Z,4.43
2022-08-01T23:12:25.461Z,4.00
2022-08-01T23:14:55.562Z,4.45
2022-08-01T23:17:27.526Z,4.50
2022-08-01T23:19:58.861Z,4.55
2022-08-01T23:22:31.725Z,4.93
2022-08-01T23:25:03.516Z,5.57
2022-08-01T23:28:03.373Z,5.10
2022-08-01T23:30:24.449Z,4.80
2022-08-01T23:32:51.240Z,4.90
2022-08-01T23:35:18.047Z,5.30
2022-08-01T23:37:46.057Z,4.60
2022-08-01T23:40:12.931Z,4.75
2022-08-01T23:42:39.788Z,4.40
2022-08-01T23:45:07.223Z,4.88
2022-08-01T23:47:33.988Z,4.72
2022-08-01T23:50:00.790Z,4.07
2022-08-01T23:52:32.150Z,5.18
2022-08-01T23:55:02.112Z,4.97
2022-08-01T23:57:42.347Z,5.07
